createdAt,value
2017-07-09T00:00:36.721Z,0
2017-07-09T00:01:17.302Z,0
2017-07-09T00:01:57.881Z,0
2017-07-09T00:02:38.447Z,0
2017-07-09T00:03:19.020Z,0
2017-07-09T00:03:59.601Z,0
2017-07-09T00:04:40.172Z,0
2017-07-09T00:05:20.752Z,0
2017-07-09T00:06:01.312Z,0
2017-07-09T00:06:41.898Z,0
2017-07-09T00:07:22.466Z,0
2017-07-09T00:08:03.047Z,0
2017-07-09T00:08:43.608Z,0
2017-07-09T00:09:24.173Z,0
2017-07-09T00:10:04.792Z,0
2017-07-09T00:10:45.363Z,0
2017-07-09T00:11:25.980Z,0
2017-07-09T00:12:06.563Z,0
2017-07-09T00:12:47.149Z,0
2017-07-09T00:13:27.724Z,0
2017-07-09T00:14:08.303Z,0
2017-07-09T00:14:48.909Z,0
2017-07-09T00:15:29.484Z,0
2017-07-09T00:16:10.076Z,0
2017-07-09T00:16:50.652Z,0
2017-07-09T00:17:34.151Z,0
2017-07-09T00:18:14.718Z,0
2017-07-09T00:18:55.285Z,0
2017-07-09T00:19:35.863Z,0
2017-07-09T00:20:16.442Z,0
2017-07-09T00:20:57.040Z,0
2017-07-09T00:21:37.607Z,0
2017-07-09T00:22:18.279Z,0
2017-07-09T00:22:58.829Z,0
2017-07-09T00:23:39.408Z,0
2017-07-09T00:24:20.005Z,0
2017-07-09T00:25:00.565Z,0
2017-07-09T00:25:41.124Z,0
2017-07-09T00:26:21.723Z,0
2017-07-09T00:27:02.302Z,0
2017-07-09T00:27:42.898Z,0
2017-07-09T00:28:23.486Z,0
2017-07-09T00:29:04.057Z,0
2017-07-09T00:29:44.637Z,0
2017-07-09T00:30:25.215Z,0
2017-07-09T00:31:05.807Z,0
2017-07-09T00:31:46.395Z,0
2017-07-09T00:32:26.986Z,0
2017-07-09T00:33:07.545Z,0
2017-07-09T00:33:48.106Z,0
2017-07-09T00:34:28.733Z,0
2017-07-09T00:35:09.305Z,0
2017-07-09T00:35:49.885Z,0
2017-07-09T00:36:30.463Z,0
2017-07-09T00:37:11.021Z,0
2017-07-09T00:37:51.593Z,0
2017-07-09T00:38:32.151Z,0
2017-07-09T00:39:12.727Z,0
2017-07-09T00:39:53.311Z,0
2017-07-09T00:40:33.881Z,0
2017-07-09T00:41:14.445Z,0
2017-07-09T00:41:55.026Z,0
2017-07-09T00:42:35.632Z,0
2017-07-09T00:43:16.204Z,0
2017-07-09T00:43:56.771Z,0
2017-07-09T00:44:37.353Z,0
2017-07-09T00:45:17.945Z,0
2017-07-09T00:45:58.550Z,0
2017-07-09T00:46:39.145Z,0
2017-07-09T00:47:19.711Z,0
2017-07-09T00:48:00.332Z,0
2017-07-09T00:48:40.923Z,0
2017-07-09T00:49:21.522Z,0
2017-07-09T00:50:02.119Z,0
2017-07-09T00:50:42.678Z,0
2017-07-09T00:51:23.271Z,0
2017-07-09T00:52:03.874Z,0
2017-07-09T00:52:44.462Z,0
2017-07-09T00:53:25.037Z,0
2017-07-09T00:54:05.638Z,0
2017-07-09T00:54:46.236Z,0
2017-07-09T00:55:26.777Z,0
2017-07-09T00:56:07.370Z,0
2017-07-09T00:56:48.043Z,0
2017-07-09T00:57:29.243Z,0
2017-07-09T00:58:09.376Z,0
2017-07-09T00:58:49.978Z,0
2017-07-09T00:59:30.561Z,0
2017-07-09T01:00:11.152Z,0
2017-07-09T01:00:51.738Z,0
2017-07-09T01:01:32.305Z,0
2017-07-09T01:02:12.984Z,0
2017-07-09T01:02:53.546Z,0
2017-07-09T01:03:34.395Z,0
2017-07-09T01:04:14.982Z,0
2017-07-09T01:04:55.545Z,0
2017-07-09T01:05:36.162Z,0
2017-07-09T01:06:16.786Z,0
2017-07-09T01:06:57.437Z,0
2017-07-09T01:07:38.526Z,0
2017-07-09T01:08:19.193Z,0
2017-07-09T01:08:59.812Z,0
2017-07-09T01:09:40.437Z,0
2017-07-09T01:10:21.063Z,0
2017-07-09T01:11:01.814Z,0
2017-07-09T01:11:42.544Z,0
2017-07-09T01:12:23.120Z,0
2017-07-09T01:13:03.734Z,0
2017-07-09T01:13:44.456Z,0
2017-07-09T01:14:25.032Z,0
2017-07-09T01:15:05.642Z,0
2017-07-09T01:15:46.319Z,0
2017-07-09T01:16:26.967Z,0
2017-07-09T01:17:07.535Z,0
2017-07-09T01:17:48.145Z,0
2017-07-09T01:18:28.796Z,0
2017-07-09T01:19:09.482Z,0
2017-07-09T01:19:50.078Z,0
2017-07-09T01:20:30.687Z,0
2017-07-09T01:21:11.267Z,0
2017-07-09T01:21:51.868Z,0
2017-07-09T01:22:32.497Z,0
2017-07-09T01:23:13.073Z,0
2017-07-09T01:23:53.636Z,0
2017-07-09T01:24:34.222Z,0
2017-07-09T01:25:14.866Z,0
2017-07-09T01:25:55.457Z,0
2017-07-09T01:26:36.050Z,0
2017-07-09T01:27:16.700Z,0
2017-07-09T01:27:57.321Z,0
2017-07-09T01:28:37.908Z,0
2017-07-09T01:29:18.483Z,0
2017-07-09T01:29:59.086Z,0
2017-07-09T01:30:39.661Z,0
2017-07-09T01:31:20.220Z,0
2017-07-09T01:32:00.832Z,0
2017-07-09T01:32:41.419Z,0
2017-07-09T01:33:21.990Z,0
2017-07-09T01:34:02.588Z,0
2017-07-09T01:34:43.134Z,0
2017-07-09T01:35:23.714Z,0
2017-07-09T01:36:04.305Z,0
2017-07-09T01:36:44.869Z,0
2017-07-09T01:37:25.493Z,0
2017-07-09T01:38:06.070Z,0
2017-07-09T01:38:46.640Z,0
2017-07-09T01:39:27.237Z,0
2017-07-09T01:40:07.805Z,0
2017-07-09T01:40:48.378Z,0
2017-07-09T01:41:28.986Z,0
2017-07-09T01:42:09.584Z,0
2017-07-09T01:42:50.173Z,0
2017-07-09T01:43:30.753Z,0
2017-07-09T01:44:11.309Z,0
2017-07-09T01:44:51.906Z,0
2017-07-09T01:45:32.489Z,0
2017-07-09T01:46:13.056Z,0
2017-07-09T01:46:53.622Z,0
2017-07-09T01:47:34.204Z,0
2017-07-09T01:48:14.785Z,0
2017-07-09T01:48:55.346Z,0
2017-07-09T01:49:35.937Z,0
2017-07-09T01:50:16.507Z,0
2017-07-09T01:50:57.101Z,0
2017-07-09T01:51:37.689Z,0
2017-07-09T01:52:18.256Z,0
2017-07-09T01:52:58.849Z,0
2017-07-09T01:53:39.430Z,0
2017-07-09T01:54:20.046Z,0
2017-07-09T01:55:00.642Z,0
2017-07-09T01:55:41.212Z,0
2017-07-09T01:56:21.791Z,0
2017-07-09T01:57:02.353Z,0
2017-07-09T01:57:42.938Z,0
2017-07-09T01:58:23.525Z,0
2017-07-09T01:59:04.114Z,0
2017-07-09T01:59:44.730Z,0
2017-07-09T02:00:25.325Z,0
2017-07-09T02:01:05.902Z,0
2017-07-09T02:01:46.465Z,0
2017-07-09T02:02:27.064Z,0
2017-07-09T02:03:07.692Z,0
2017-07-09T02:03:48.294Z,0
2017-07-09T02:04:28.882Z,0
2017-07-09T02:05:09.466Z,0
2017-07-09T02:05:50.044Z,0
2017-07-09T02:06:30.632Z,0
2017-07-09T02:07:11.182Z,0
2017-07-09T02:07:51.787Z,0
2017-07-09T02:08:32.396Z,0
2017-07-09T02:09:12.972Z,0
2017-07-09T02:09:53.535Z,0
2017-07-09T02:10:34.100Z,0
2017-07-09T02:11:14.712Z,0
2017-07-09T02:11:55.331Z,0
2017-07-09T02:12:35.903Z,0
2017-07-09T02:13:16.566Z,0
2017-07-09T02:13:57.150Z,0
2017-07-09T02:14:37.719Z,4
2017-07-09T02:15:18.287Z,4
2017-07-09T02:15:58.862Z,4
2017-07-09T02:16:39.452Z,0
2017-07-09T02:17:20.016Z,0
2017-07-09T02:18:00.596Z,0
2017-07-09T02:18:41.186Z,4
2017-07-09T02:19:21.760Z,4
2017-07-09T02:20:02.326Z,4
2017-07-09T02:20:42.909Z,0
2017-07-09T02:21:23.529Z,4
2017-07-09T02:22:04.124Z,4
2017-07-09T02:22:44.688Z,4
2017-07-09T02:23:25.264Z,4
2017-07-09T02:24:05.828Z,4
2017-07-09T02:24:46.404Z,4
2017-07-09T02:25:26.984Z,8
2017-07-09T02:26:07.578Z,4
2017-07-09T02:26:48.193Z,4
2017-07-09T02:27:28.774Z,8
2017-07-09T02:28:09.335Z,4
2017-07-09T02:28:49.906Z,8
2017-07-09T02:29:30.483Z,8
2017-07-09T02:30:11.058Z,8
2017-07-09T02:30:51.673Z,8
2017-07-09T02:31:32.236Z,12
2017-07-09T02:32:12.846Z,8
2017-07-09T02:32:53.441Z,12
2017-07-09T02:33:34.041Z,12
2017-07-09T02:34:14.630Z,12
2017-07-09T02:34:55.201Z,16
2017-07-09T02:35:35.757Z,16
2017-07-09T02:36:16.337Z,20
2017-07-09T02:36:56.913Z,20
2017-07-09T02:37:37.502Z,20
2017-07-09T02:38:18.103Z,24
2017-07-09T02:38:58.690Z,24
2017-07-09T02:39:39.261Z,28
2017-07-09T02:40:19.819Z,24
2017-07-09T02:41:00.423Z,28
2017-07-09T02:41:41.008Z,32
2017-07-09T02:42:21.604Z,36
2017-07-09T02:43:02.163Z,36
2017-07-09T02:43:42.738Z,40
2017-07-09T02:44:23.315Z,40
2017-07-09T02:45:03.903Z,44
2017-07-09T02:45:44.471Z,48
2017-07-09T02:46:25.052Z,48
2017-07-09T02:47:05.618Z,48
2017-07-09T02:47:46.191Z,56
2017-07-09T02:48:26.759Z,56
2017-07-09T02:49:07.323Z,60
2017-07-09T02:49:47.927Z,64
2017-07-09T02:50:28.524Z,64
2017-07-09T02:51:09.101Z,68
2017-07-09T02:51:49.698Z,76
2017-07-09T02:52:30.316Z,80
2017-07-09T02:53:10.896Z,80
2017-07-09T02:53:51.512Z,84
2017-07-09T02:54:32.097Z,92
2017-07-09T02:55:12.699Z,100
2017-07-09T02:55:53.255Z,100
2017-07-09T02:56:33.847Z,108
2017-07-09T02:57:14.419Z,112
2017-07-09T02:57:55.000Z,120
2017-07-09T02:58:35.569Z,124
2017-07-09T02:59:16.155Z,132
2017-07-09T02:59:56.730Z,136
2017-07-09T03:00:37.311Z,144
2017-07-09T03:01:17.896Z,152
2017-07-09T03:01:58.472Z,156
2017-07-09T03:02:39.059Z,164
2017-07-09T03:03:19.653Z,168
2017-07-09T03:04:00.250Z,172
2017-07-09T03:04:40.870Z,176
2017-07-09T03:05:21.431Z,184
2017-07-09T03:06:02.004Z,192
2017-07-09T03:06:42.588Z,200
2017-07-09T03:07:23.165Z,208
2017-07-09T03:08:03.744Z,216
2017-07-09T03:08:44.345Z,224
2017-07-09T03:09:24.934Z,236
2017-07-09T03:10:05.506Z,244
2017-07-09T03:10:46.157Z,252
2017-07-09T03:11:26.744Z,264
2017-07-09T03:12:07.324Z,272
2017-07-09T03:12:47.905Z,284
2017-07-09T03:13:28.498Z,296
2017-07-09T03:14:09.071Z,304
2017-07-09T03:14:49.658Z,316
2017-07-09T03:15:30.306Z,324
2017-07-09T03:16:10.893Z,340
2017-07-09T03:16:51.528Z,348
2017-07-09T03:17:32.071Z,360
2017-07-09T03:18:12.650Z,372
2017-07-09T03:18:53.233Z,380
2017-07-09T03:19:33.815Z,392
2017-07-09T03:20:14.378Z,404
2017-07-09T03:20:54.939Z,416
2017-07-09T03:21:35.517Z,428
2017-07-09T03:22:16.124Z,444
2017-07-09T03:22:56.700Z,460
2017-07-09T03:23:37.297Z,476
2017-07-09T03:24:17.874Z,492
2017-07-09T03:24:58.451Z,508
2017-07-09T03:25:39.093Z,520
2017-07-09T03:26:19.668Z,536
2017-07-09T03:27:00.236Z,552
2017-07-09T03:27:40.818Z,568
2017-07-09T03:28:21.396Z,584
2017-07-09T03:29:01.963Z,604
2017-07-09T03:29:42.563Z,624
2017-07-09T03:30:23.127Z,644
2017-07-09T03:31:03.683Z,668
2017-07-09T03:31:44.242Z,692
2017-07-09T03:32:24.806Z,716
2017-07-09T03:33:05.399Z,736
2017-07-09T03:33:46.014Z,764
2017-07-09T03:34:26.604Z,788
2017-07-09T03:35:07.179Z,804
2017-07-09T03:35:47.751Z,828
2017-07-09T03:36:28.318Z,848
2017-07-09T03:37:08.882Z,872
2017-07-09T03:37:49.470Z,896
2017-07-09T03:38:30.048Z,920
2017-07-09T03:39:10.656Z,948
2017-07-09T03:39:51.294Z,972
2017-07-09T03:40:31.832Z,992
2017-07-09T03:41:12.435Z,1016
2017-07-09T03:41:52.998Z,1036
2017-07-09T03:42:33.574Z,1056
2017-07-09T03:43:14.138Z,1076
2017-07-09T03:43:54.709Z,1096
2017-07-09T03:44:35.316Z,1124
2017-07-09T03:45:15.904Z,1152
2017-07-09T03:45:56.467Z,1172
2017-07-09T03:46:37.067Z,1196
2017-07-09T03:47:17.644Z,1216
2017-07-09T03:47:58.218Z,1240
2017-07-09T03:48:38.806Z,1268
2017-07-09T03:49:19.375Z,1296
2017-07-09T03:49:59.964Z,1320
2017-07-09T03:50:40.533Z,1348
2017-07-09T03:51:21.142Z,1372
2017-07-09T03:52:01.748Z,1396
2017-07-09T03:52:42.324Z,1420
2017-07-09T03:53:22.886Z,1452
2017-07-09T03:54:03.451Z,1488
2017-07-09T03:54:44.015Z,1528
2017-07-09T03:55:24.579Z,1564
2017-07-09T03:56:05.156Z,1592
2017-07-09T03:56:45.728Z,1616
2017-07-09T03:57:26.294Z,1632
2017-07-09T03:58:06.855Z,1652
2017-07-09T03:58:47.441Z,1672
2017-07-09T03:59:28.004Z,1704
2017-07-09T04:00:08.573Z,1740
2017-07-09T04:00:49.144Z,1764
2017-07-09T04:01:29.758Z,1800
2017-07-09T04:02:10.341Z,1840
2017-07-09T04:02:50.912Z,1880
2017-07-09T04:03:31.473Z,1924
2017-07-09T04:04:12.045Z,1956
2017-07-09T04:04:52.635Z,1992
2017-07-09T04:05:33.209Z,2024
2017-07-09T04:06:13.793Z,2052
2017-07-09T04:06:54.362Z,2080
2017-07-09T04:07:34.966Z,2112
2017-07-09T04:08:15.553Z,2148
2017-07-09T04:08:56.121Z,2188
2017-07-09T04:09:36.687Z,2224
2017-07-09T04:10:17.273Z,2268
2017-07-09T04:10:57.834Z,2308
2017-07-09T04:11:38.422Z,2352
2017-07-09T04:12:18.992Z,2392
2017-07-09T04:12:59.560Z,2428
2017-07-09T04:13:40.134Z,2460
2017-07-09T04:14:20.755Z,2496
2017-07-09T04:15:01.279Z,2532
2017-07-09T04:15:41.847Z,2576
2017-07-09T04:16:22.449Z,2616
2017-07-09T04:17:03.023Z,2656
2017-07-09T04:17:43.604Z,2692
2017-07-09T04:18:24.172Z,2724
2017-07-09T04:19:04.738Z,2764
2017-07-09T04:19:45.304Z,2792
2017-07-09T04:20:25.867Z,2824
2017-07-09T04:21:06.431Z,2848
2017-07-09T04:21:47.011Z,2884
2017-07-09T04:22:27.590Z,2924
2017-07-09T04:23:08.160Z,2960
2017-07-09T04:23:48.726Z,3000
2017-07-09T04:24:29.355Z,3052
2017-07-09T04:25:09.938Z,3096
2017-07-09T04:25:50.542Z,3148
2017-07-09T04:26:31.115Z,3200
2017-07-09T04:27:11.685Z,3268
2017-07-09T04:27:52.248Z,3344
2017-07-09T04:28:32.825Z,3424
2017-07-09T04:29:13.402Z,3488
2017-07-09T04:29:53.991Z,3532
2017-07-09T04:30:34.583Z,3580
2017-07-09T04:31:15.170Z,3624
2017-07-09T04:31:55.737Z,3656
2017-07-09T04:32:36.318Z,3676
2017-07-09T04:33:16.901Z,3740
2017-07-09T04:33:57.463Z,3760
2017-07-09T04:34:38.027Z,3796
2017-07-09T04:35:18.602Z,3804
2017-07-09T04:35:59.189Z,3844
2017-07-09T04:36:39.766Z,3896
2017-07-09T04:37:20.333Z,3940
2017-07-09T04:38:00.918Z,3948
2017-07-09T04:38:41.495Z,4012
2017-07-09T04:39:22.054Z,3984
2017-07-09T04:40:02.622Z,3864
2017-07-09T04:40:43.186Z,3920
2017-07-09T04:41:23.748Z,4072
2017-07-09T04:42:04.313Z,4156
2017-07-09T04:42:44.895Z,4220
2017-07-09T04:43:25.523Z,4268
2017-07-09T04:44:06.127Z,4292
2017-07-09T04:44:46.692Z,4320
2017-07-09T04:45:27.270Z,4372
2017-07-09T04:46:07.838Z,4448
2017-07-09T04:46:48.414Z,4528
2017-07-09T04:47:28.989Z,4608
2017-07-09T04:48:09.555Z,4696
2017-07-09T04:48:50.120Z,4776
2017-07-09T04:49:30.747Z,4856
2017-07-09T04:50:11.376Z,4932
2017-07-09T04:50:51.937Z,5004
2017-07-09T04:51:32.517Z,5084
2017-07-09T04:52:13.088Z,5172
2017-07-09T04:52:53.651Z,5264
2017-07-09T04:53:34.217Z,5356
2017-07-09T04:54:15.370Z,5432
2017-07-09T04:54:55.948Z,5476
2017-07-09T04:55:36.518Z,5504
2017-07-09T04:56:17.090Z,5544
2017-07-09T04:56:57.650Z,5592
2017-07-09T04:57:38.208Z,5648
2017-07-09T04:58:18.780Z,5756
2017-07-09T04:58:59.337Z,5912
2017-07-09T04:59:39.908Z,6084
2017-07-09T05:00:20.481Z,6252
2017-07-09T05:01:01.144Z,6296
2017-07-09T05:01:41.704Z,6268
2017-07-09T05:02:22.272Z,6188
2017-07-09T05:03:02.859Z,6092
2017-07-09T05:03:43.438Z,6020
2017-07-09T05:04:24.005Z,5972
2017-07-09T05:05:04.575Z,5904
2017-07-09T05:05:45.148Z,5828
2017-07-09T05:06:25.780Z,5760
2017-07-09T05:07:06.313Z,5700
2017-07-09T05:07:46.872Z,5664
2017-07-09T05:08:27.434Z,5668
2017-07-09T05:09:08.003Z,5708
2017-07-09T05:09:48.566Z,5756
2017-07-09T05:10:29.123Z,5816
2017-07-09T05:11:09.691Z,5876
2017-07-09T05:11:50.261Z,5952
2017-07-09T05:12:30.839Z,5992
2017-07-09T05:13:11.410Z,5996
2017-07-09T05:13:51.976Z,6000
2017-07-09T05:14:32.536Z,5988
2017-07-09T05:15:13.105Z,5968
2017-07-09T05:15:53.665Z,5964
2017-07-09T05:16:34.292Z,5980
2017-07-09T05:17:14.875Z,6000
2017-07-09T05:17:55.513Z,6032
2017-07-09T05:18:36.252Z,6076
2017-07-09T05:19:16.852Z,6104
2017-07-09T05:19:57.471Z,6120
2017-07-09T05:20:38.052Z,6164
2017-07-09T05:21:18.627Z,6240
2017-07-09T05:21:59.180Z,6348
2017-07-09T05:22:39.825Z,6444
2017-07-09T05:23:20.482Z,6532
2017-07-09T05:24:01.132Z,6620
2017-07-09T05:24:41.716Z,6688
2017-07-09T05:25:22.888Z,6752
2017-07-09T05:26:03.588Z,6832
2017-07-09T05:26:44.357Z,6900
2017-07-09T05:27:24.966Z,6956
2017-07-09T05:28:05.658Z,6996
2017-07-09T05:28:46.448Z,7052
2017-07-09T05:29:27.018Z,7284
2017-07-09T05:30:07.690Z,8164
2017-07-09T05:30:48.319Z,9428
2017-07-09T05:31:28.921Z,11648
2017-07-09T05:32:09.575Z,14880
2017-07-09T05:32:50.214Z,26720
2017-07-09T05:33:30.900Z,44608
2017-07-09T05:34:11.747Z,61120
2017-07-09T05:34:52.664Z,65344
2017-07-09T05:35:33.366Z,63392
2017-07-09T05:36:14.038Z,61664
2017-07-09T05:36:54.810Z,60768
2017-07-09T05:37:35.412Z,60768
2017-07-09T05:38:15.995Z,62944
2017-07-09T05:38:56.836Z,64672
2017-07-09T05:39:37.778Z,65216
2017-07-09T05:40:18.361Z,65472
2017-07-09T05:40:59.008Z,65216
2017-07-09T05:41:39.631Z,63680
2017-07-09T05:42:20.582Z,63008
2017-07-09T05:43:01.381Z,61408
2017-07-09T05:43:42.351Z,61696
2017-07-09T05:44:23.156Z,60896
2017-07-09T05:45:03.721Z,61536
2017-07-09T05:45:44.644Z,61696
2017-07-09T05:46:25.479Z,61312
2017-07-09T05:47:06.286Z,61728
2017-07-09T05:47:46.948Z,62720
2017-07-09T05:48:27.542Z,62144
2017-07-09T05:49:08.115Z,60160
2017-07-09T05:49:48.687Z,58272
2017-07-09T05:50:29.282Z,58144
2017-07-09T05:51:09.856Z,58528
2017-07-09T05:51:50.552Z,58944
2017-07-09T05:52:31.505Z,60096
2017-07-09T05:53:12.494Z,59968
2017-07-09T05:53:53.408Z,59008
2017-07-09T05:54:34.135Z,58240
2017-07-09T05:55:15.046Z,57568
2017-07-09T05:55:55.840Z,58016
2017-07-09T05:56:36.657Z,56352
2017-07-09T05:57:17.517Z,54592
2017-07-09T05:57:58.112Z,55232
2017-07-09T05:58:38.782Z,55872
2017-07-09T05:59:19.528Z,57056
2017-07-09T06:00:00.219Z,57856
2017-07-09T06:00:40.777Z,58624
2017-07-09T06:01:21.351Z,60096
2017-07-09T06:02:01.934Z,59968
2017-07-09T06:02:42.530Z,59136
2017-07-09T06:03:23.246Z,56896
2017-07-09T06:04:03.910Z,59648
2017-07-09T06:04:44.483Z,60640
2017-07-09T06:05:25.323Z,55968
2017-07-09T06:06:05.923Z,53696
2017-07-09T06:06:46.529Z,54240
2017-07-09T06:07:27.143Z,58944
2017-07-09T06:08:07.796Z,60320
2017-07-09T06:08:48.472Z,62592
2017-07-09T06:09:29.061Z,63360
2017-07-09T06:10:09.662Z,61888
2017-07-09T06:10:50.367Z,59104
2017-07-09T06:11:31.123Z,61632
2017-07-09T06:12:11.774Z,62112
2017-07-09T06:12:52.349Z,58112
2017-07-09T06:13:33.052Z,59776
2017-07-09T06:14:13.834Z,58592
2017-07-09T06:14:54.417Z,57824
2017-07-09T06:15:35.501Z,59776
2017-07-09T06:16:16.164Z,60160
2017-07-09T06:16:56.878Z,58688
2017-07-09T06:17:37.361Z,52992
2017-07-09T06:18:17.959Z,61312
2017-07-09T06:18:58.619Z,63712
2017-07-09T06:19:39.397Z,62624
2017-07-09T06:20:20.019Z,61376
2017-07-09T06:21:00.685Z,61856
2017-07-09T06:21:41.372Z,64768
2017-07-09T06:22:21.968Z,63008
2017-07-09T06:23:02.852Z,60640
2017-07-09T06:23:43.444Z,56608
2017-07-09T06:24:24.117Z,52352
2017-07-09T06:25:04.704Z,44800
2017-07-09T06:25:45.288Z,57888
2017-07-09T06:26:26.297Z,61376
2017-07-09T06:27:07.037Z,59328
2017-07-09T06:27:47.615Z,57568
2017-07-09T06:28:28.321Z,59168
2017-07-09T06:29:09.120Z,61344
2017-07-09T06:29:49.715Z,63904
2017-07-09T06:30:30.446Z,63840
2017-07-09T06:31:11.120Z,64480
2017-07-09T06:31:51.827Z,65856
2017-07-09T06:32:32.504Z,64960
2017-07-09T06:33:13.158Z,65248
2017-07-09T06:33:54.063Z,63552
2017-07-09T06:34:34.642Z,63392
2017-07-09T06:35:15.411Z,61952
2017-07-09T06:35:56.030Z,61536
2017-07-09T06:36:36.666Z,59264
2017-07-09T06:37:17.232Z,60928
2017-07-09T06:37:58.337Z,59552
2017-07-09T06:38:39.072Z,60064
2017-07-09T06:39:19.782Z,62976
2017-07-09T06:40:00.392Z,64896
2017-07-09T06:40:40.970Z,64384
2017-07-09T06:41:21.545Z,62880
2017-07-09T06:42:02.366Z,62208
2017-07-09T06:42:43.302Z,64544
2017-07-09T06:43:23.937Z,64512
2017-07-09T06:44:04.817Z,62816
2017-07-09T06:44:45.624Z,63264
2017-07-09T06:45:26.553Z,61440
2017-07-09T06:46:07.337Z,62080
2017-07-09T06:46:48.087Z,64640
2017-07-09T06:47:28.781Z,64992
2017-07-09T06:48:09.716Z,64992
2017-07-09T06:48:50.667Z,66752
2017-07-09T06:49:31.597Z,67264
2017-07-09T06:50:12.598Z,67712
2017-07-09T06:50:53.364Z,68800
2017-07-09T06:51:34.014Z,66208
2017-07-09T06:52:14.596Z,65184
2017-07-09T06:52:55.284Z,61248
2017-07-09T06:53:35.844Z,50112
2017-07-09T06:54:16.420Z,33056
2017-07-09T06:54:57.022Z,30016
2017-07-09T06:55:37.758Z,25856
2017-07-09T06:56:18.439Z,22368
2017-07-09T06:56:59.070Z,13908
2017-07-09T06:57:39.690Z,10380
2017-07-09T06:58:20.820Z,10200
2017-07-09T06:59:01.393Z,10972
2017-07-09T06:59:42.059Z,9848
2017-07-09T07:00:22.631Z,9952
2017-07-09T07:01:03.230Z,11140
2017-07-09T07:01:43.840Z,12072
2017-07-09T07:02:24.384Z,34368
2017-07-09T07:03:04.977Z,54624
2017-07-09T07:03:45.562Z,25056
2017-07-09T07:04:26.176Z,64416
2017-07-09T07:05:06.719Z,23040
2017-07-09T07:05:47.294Z,52192
2017-07-09T07:06:27.898Z,22176
2017-07-09T07:07:08.679Z,29088
2017-07-09T07:07:49.682Z,19040
2017-07-09T07:08:30.759Z,59968
2017-07-09T07:09:11.351Z,60672
2017-07-09T07:09:51.925Z,48160
2017-07-09T07:10:33.244Z,38304
2017-07-09T07:11:14.213Z,57280
2017-07-09T07:11:55.940Z,55744
2017-07-09T07:12:36.905Z,55776
2017-07-09T07:13:17.875Z,52960
2017-07-09T07:13:59.937Z,51776
2017-07-09T07:14:45.042Z,51744
2017-07-09T07:15:37.759Z,57120
2017-07-09T07:16:18.354Z,59200
2017-07-09T07:16:59.049Z,59840
2017-07-09T07:17:40.874Z,56576
2017-07-09T07:18:24.948Z,47872
2017-07-09T07:19:07.515Z,57984
2017-07-09T07:19:48.134Z,58336
2017-07-09T07:20:28.813Z,60800
2017-07-09T07:21:09.396Z,59968
2017-07-09T07:21:50.037Z,58880
2017-07-09T07:22:30.662Z,55840
2017-07-09T07:23:11.249Z,57632
2017-07-09T07:23:51.951Z,55936
2017-07-09T07:24:32.537Z,49824
2017-07-09T07:25:13.115Z,49952
2017-07-09T07:25:53.917Z,25600
2017-07-09T07:26:34.460Z,22720
2017-07-09T07:27:15.686Z,15128
2017-07-09T07:27:56.567Z,13280
2017-07-09T07:28:37.190Z,12016
2017-07-09T07:29:17.771Z,12836
2017-07-09T07:29:58.406Z,10016
2017-07-09T07:30:39.124Z,8880
2017-07-09T07:31:19.703Z,8184
2017-07-09T07:32:00.311Z,8212
2017-07-09T07:32:40.897Z,9216
2017-07-09T07:33:21.500Z,17376
2017-07-09T07:34:02.263Z,36224
2017-07-09T07:34:44.655Z,61888
2017-07-09T07:35:26.346Z,56000
2017-07-09T07:36:07.567Z,57568
2017-07-09T07:36:48.494Z,63872
2017-07-09T07:37:30.483Z,64352
2017-07-09T07:38:12.306Z,63712
2017-07-09T07:38:53.165Z,61056
2017-07-09T07:39:34.296Z,60576
2017-07-09T07:40:15.005Z,57120
2017-07-09T07:40:56.203Z,57696
2017-07-09T07:41:38.429Z,58560
2017-07-09T07:42:20.256Z,27904
2017-07-09T07:43:01.629Z,55168
2017-07-09T07:43:43.737Z,46400
2017-07-09T07:44:25.701Z,37312
2017-07-09T07:45:06.667Z,52032
2017-07-09T07:45:48.107Z,38592
2017-07-09T07:46:29.383Z,22240
2017-07-09T07:47:10.386Z,22080
2017-07-09T07:47:51.181Z,43776
2017-07-09T07:48:42.290Z,41088
2017-07-09T07:49:29.598Z,27712
2017-07-09T07:50:17.729Z,32608
2017-07-09T07:51:05.531Z,19392
2017-07-09T07:51:46.125Z,16576
2017-07-09T07:52:26.726Z,18272
2017-07-09T07:53:07.410Z,17152
2017-07-09T07:53:47.995Z,14708
2017-07-09T07:54:28.576Z,14940
2017-07-09T07:55:09.225Z,14128
2017-07-09T07:55:49.847Z,12076
2017-07-09T07:56:30.459Z,10484
2017-07-09T07:57:11.065Z,10156
2017-07-09T07:57:51.636Z,9900
2017-07-09T07:58:32.254Z,8980
2017-07-09T07:59:12.826Z,9036
2017-07-09T07:59:53.405Z,10492
2017-07-09T08:00:33.998Z,14264
2017-07-09T08:01:14.583Z,42688
2017-07-09T08:01:55.150Z,18048
2017-07-09T08:02:35.726Z,36576
2017-07-09T08:03:16.307Z,49184
2017-07-09T08:03:56.933Z,19264
2017-07-09T08:04:37.533Z,16864
2017-07-09T08:05:18.112Z,18976
2017-07-09T08:05:58.700Z,17536
2017-07-09T08:06:39.299Z,11828
2017-07-09T08:07:20.218Z,10236
2017-07-09T08:08:00.817Z,9708
2017-07-09T08:08:41.437Z,9088
2017-07-09T08:09:22.053Z,8252
2017-07-09T08:10:02.654Z,7652
2017-07-09T08:10:43.742Z,7260
2017-07-09T08:11:24.372Z,7032
2017-07-09T08:12:05.019Z,6824
2017-07-09T08:12:45.742Z,6620
2017-07-09T08:13:26.427Z,6392
2017-07-09T08:14:22.997Z,6360
2017-07-09T08:15:08.360Z,6288
2017-07-09T08:15:48.957Z,6044
2017-07-09T08:16:29.549Z,5712
2017-07-09T08:17:10.117Z,5324
2017-07-09T08:17:50.706Z,4864
2017-07-09T08:18:31.280Z,4388
2017-07-09T08:19:11.943Z,3944
2017-07-09T08:19:53.038Z,3504
2017-07-09T08:20:33.626Z,3148
2017-07-09T08:21:14.210Z,2876
2017-07-09T08:21:54.791Z,2740
2017-07-09T08:22:35.410Z,2732
2017-07-09T08:23:16.034Z,2804
2017-07-09T08:23:56.619Z,2888
2017-07-09T08:24:37.277Z,2964
2017-07-09T08:25:17.875Z,3060
2017-07-09T08:25:58.481Z,3168
2017-07-09T08:26:39.081Z,3200
2017-07-09T08:27:19.692Z,3180
2017-07-09T08:28:00.333Z,3272
2017-07-09T08:28:40.996Z,3300
2017-07-09T08:29:21.598Z,3164
2017-07-09T08:30:02.179Z,2984
2017-07-09T08:30:42.777Z,2828
2017-07-09T08:31:23.364Z,2716
2017-07-09T08:32:03.950Z,2636
2017-07-09T08:32:44.588Z,2588
2017-07-09T08:33:25.112Z,2560
2017-07-09T08:34:05.753Z,2572
2017-07-09T08:34:46.294Z,2660
2017-07-09T08:35:26.923Z,2728
2017-07-09T08:36:07.502Z,2756
2017-07-09T08:36:48.112Z,2744
2017-07-09T08:37:28.724Z,2704
2017-07-09T08:38:09.312Z,2676
2017-07-09T08:38:49.921Z,2624
2017-07-09T08:39:30.541Z,2588
2017-07-09T08:40:11.108Z,2564
2017-07-09T08:40:52.036Z,2504
2017-07-09T08:41:32.538Z,2460
2017-07-09T08:42:13.153Z,2456
2017-07-09T08:42:53.761Z,2464
2017-07-09T08:43:34.404Z,2468
2017-07-09T08:44:14.988Z,2468
2017-07-09T08:44:55.571Z,2492
2017-07-09T08:45:36.190Z,2548
2017-07-09T08:46:16.778Z,2604
2017-07-09T08:46:57.363Z,2668
2017-07-09T08:47:38.048Z,2712
2017-07-09T08:48:18.751Z,2740
2017-07-09T08:49:00.101Z,2792
2017-07-09T08:49:40.725Z,2932
2017-07-09T08:50:21.331Z,3140
2017-07-09T08:51:02.450Z,3400
2017-07-09T08:51:43.054Z,3684
2017-07-09T08:52:23.655Z,3916
2017-07-09T08:53:04.275Z,4212
2017-07-09T08:53:44.943Z,4612
2017-07-09T08:54:25.545Z,4872
2017-07-09T08:55:06.150Z,4876
2017-07-09T08:55:46.749Z,4684
2017-07-09T08:56:27.342Z,4396
2017-07-09T08:57:07.958Z,4104
2017-07-09T08:57:48.547Z,3880
2017-07-09T08:58:29.150Z,3632
2017-07-09T08:59:09.894Z,3480
2017-07-09T08:59:50.481Z,3392
2017-07-09T09:00:31.430Z,3328
2017-07-09T09:01:12.075Z,3288
2017-07-09T09:01:52.726Z,3256
2017-07-09T09:02:33.375Z,3224
2017-07-09T09:03:14.149Z,3104
2017-07-09T09:03:55.100Z,2880
2017-07-09T09:04:36.098Z,2668
2017-07-09T09:05:16.706Z,2512
2017-07-09T09:05:57.355Z,2436
2017-07-09T09:06:38.264Z,2424
2017-07-09T09:07:18.935Z,2436
2017-07-09T09:07:59.741Z,2440
2017-07-09T09:08:40.331Z,2444
2017-07-09T09:09:20.917Z,2448
2017-07-09T09:10:01.518Z,2444
2017-07-09T09:10:42.306Z,2416
2017-07-09T09:11:23.096Z,2392
2017-07-09T09:12:03.773Z,2388
2017-07-09T09:12:44.739Z,2424
2017-07-09T09:13:25.520Z,2516
2017-07-09T09:14:06.278Z,2656
2017-07-09T09:14:46.952Z,2820
2017-07-09T09:15:28.108Z,3000
2017-07-09T09:16:08.807Z,3104